Current | Forecast
Updated: 8:00 PM CEST on June 19, 2018
Observed at Salamanca, Spain
Temperature 28°C
Humidity 39%
Dew Point 13°C
Wind NW at 7 km/h
Pressure 1019 hPa (Steady)
Conditions Partly Cloudy
Visibility 10.0 kilometers
UV 2 out of 16
Clouds (FEW) : 1463 m
Yesterday's Maximum 29°C
Yesterday's Minimum 16°C approx.
Yesterday's Cooling Degree Days 7 approx.
Sunrise6:51 AM CEST
Sunset9:53 PM CEST
Moon Rise1:13 PM CEST
Moon Set1:55 AM CEST
Moon PhaseMoon Phase
Waxing Crescent
Raw METARMETAR LESA 191800Z 32004KT 270V360 9999 FEW048 28/13 Q1019


Monday
. High: 62° F.
Tuesday
. High: 71° F.
Wednesday
. High: 60° F.
Thursday
. High: 64° F.
Friday
. High: 73° F.
Saturday
. High: 66° F.
Sunday
. High: 71° F.
Monday
. High: 77° F.

Units: English | Metric

Find the Weather for any City, State or Zipcode, or Country:

U.S. State List | Severe Weather | Tropical Storms | Ski Conditions
United States | Canada | Central America | South America | Asia | Europe | Australia | Africa | Islands

Weather Underground

© Copyright 2018
The Weather Company, LLC